KILN/ILN METAR and TAF weather

Enter ICAO airport designator
Station Type Date Time Source
KILN METAR 2019/12/11 11:54 UTC NOAA

KILN 111154Z AUTO 22008KT 10SM OVC038 M07/M10 A3040 RMK AO2 SLP328 T10721100 11061 21089 53013


Station Type Date Time Source
KILN Decoded METAR 2019/12/11 11:54 UTC NOAA

WILMINGTON INDUSTRIAL AIRPORT , OH, United States (KILN) 39-26N 083-47W 332M
Dec 11, 2019 - 06:54 AM EST / 2019.12.11 1154 UTC
Wind: from the SW (220 degrees) at 9 MPH (8 KT):0
Visibility: 10 mile(s):0
Sky conditions: overcast
Temperature: 19.0 F (-7.2 C)
Windchill: 8 F (-13 C):1
Dew Point: 14.0 F (-10.0 C)
Relative Humidity: 80%
Pressure (altimeter): 30.4 in. Hg (1029 hPa)
Pressure tendency: 0.04 inches (1.3 hPa) higher than three hours ago
ob: KILN 111154Z AUTO 22008KT 10SM OVC038 M07/M10 A3040 RMK AO2 SLP328 T10721100 11061 21089 53013
cycle: 12

Station Type Date Time Source
KILN TAF 2019/12/11 12:34 UTC NOAA

TAF KILN 111132Z 1112/1212 22007KT P6SM SCT040
FM111700 26012G22KT P6SM BKN050
FM112100 29010KT P6SM SCT050
FM112300 30006KT P6SM FEW050
FM120100 01005KT P6SM SKC

Example: see airport list